createdAt,value
2023-03-04T00:00:32.286Z,23.65
2023-03-04T00:02:59.933Z,27.77
2023-03-04T00:05:27.584Z,22.05
2023-03-04T00:07:55.010Z,25.88
2023-03-04T00:10:22.496Z,23.73
2023-03-04T00:12:50.122Z,20.27
2023-03-04T00:15:17.569Z,21.13
2023-03-04T00:17:46.196Z,24.02
2023-03-04T00:20:14.375Z,16.25
2023-03-04T00:22:41.892Z,21.90
2023-03-04T00:25:09.761Z,21.73
2023-03-04T00:27:37.398Z,23.80
2023-03-04T00:30:07.253Z,23.60
2023-03-04T00:32:34.739Z,21.73
2023-03-04T00:35:06.001Z,23.67
2023-03-04T00:37:33.569Z,19.13
2023-03-04T00:40:01.212Z,21.00
2023-03-04T00:42:28.706Z,24.75
2023-03-04T00:44:56.390Z,24.05
2023-03-04T00:47:23.935Z,19.00
2023-03-04T00:49:51.361Z,21.48
2023-03-04T00:52:18.928Z,18.55
2023-03-04T00:54:46.438Z,18.38
2023-03-04T00:57:14.132Z,20.25
2023-03-04T00:59:43.757Z,20.25
2023-03-04T01:02:11.305Z,18.48
2023-03-04T01:04:39.125Z,19.55
2023-03-04T01:07:06.654Z,22.23
2023-03-04T01:09:34.649Z,24.35
2023-03-04T01:12:04.037Z,21.83
2023-03-04T01:14:31.811Z,20.98
2023-03-04T01:16:59.467Z,19.73
2023-03-04T01:19:27.166Z,21.17
2023-03-04T01:21:54.852Z,19.33
2023-03-04T01:24:22.989Z,22.85
2023-03-04T01:26:50.648Z,17.08
2023-03-04T01:29:18.191Z,21.70
2023-03-04T01:31:45.637Z,21.45
2023-03-04T01:34:13.693Z,21.15
2023-03-04T01:36:41.281Z,21.85
2023-03-04T01:39:08.989Z,23.67
2023-03-04T01:41:36.588Z,22.17
2023-03-04T01:44:04.513Z,18.13
2023-03-04T01:46:33.050Z,16.02
2023-03-04T01:49:00.843Z,17.15
2023-03-04T01:51:28.399Z,21.40
2023-03-04T01:53:56.413Z,24.27
2023-03-04T01:56:36.729Z,17.13
2023-03-04T01:59:10.781Z,20.77
2023-03-04T02:01:40.930Z,18.08
2023-03-04T02:04:09.843Z,19.75
2023-03-04T02:06:40.339Z,15.82
2023-03-04T02:09:09.092Z,16.33
2023-03-04T02:11:38.841Z,15.85
2023-03-04T02:14:07.467Z,16.80
2023-03-04T02:16:35.362Z,16.42
2023-03-04T02:19:09.707Z,19.27
2023-03-04T02:21:37.316Z,17.30
2023-03-04T02:24:36.980Z,21.75
2023-03-04T02:27:05.416Z,17.73
2023-03-04T02:29:33.067Z,17.90
2023-03-04T02:32:00.964Z,18.95
2023-03-04T02:34:35.573Z,16.05
2023-03-04T02:37:04.550Z,19.75
2023-03-04T02:39:41.026Z,20.27
2023-03-04T02:42:09.273Z,19.10
2023-03-04T02:44:46.230Z,18.88
2023-03-04T02:47:20.578Z,20.13
2023-03-04T02:49:49.824Z,15.82
2023-03-04T02:52:26.438Z,17.75
2023-03-04T02:54:53.924Z,15.00
2023-03-04T02:57:21.483Z,15.02
2023-03-04T02:59:53.605Z,16.30
2023-03-04T03:02:24.221Z,15.48
2023-03-04T03:04:52.250Z,14.32
2023-03-04T03:07:21.506Z,19.45
2023-03-04T03:09:49.972Z,18.00
2023-03-04T03:12:18.870Z,17.95
2023-03-04T03:14:46.677Z,18.42
2023-03-04T03:17:17.841Z,17.92
2023-03-04T03:19:45.383Z,16.63
2023-03-04T03:22:13.283Z,20.42
2023-03-04T03:24:40.750Z,16.60
2023-03-04T03:27:08.243Z,21.13
2023-03-04T03:29:36.013Z,18.05
2023-03-04T03:32:03.693Z,16.88
2023-03-04T03:34:31.262Z,21.00
2023-03-04T03:36:58.821Z,13.65
2023-03-04T03:39:26.366Z,16.25
2023-03-04T03:41:54.011Z,13.38
2023-03-04T03:44:21.466Z,15.15
2023-03-04T03:46:48.875Z,14.73
2023-03-04T03:49:17.251Z,12.73
2023-03-04T03:51:44.824Z,18.35
2023-03-04T03:54:12.430Z,14.02
2023-03-04T03:56:40.050Z,17.08
2023-03-04T03:59:07.657Z,17.65
2023-03-04T04:01:35.194Z,17.73
2023-03-04T04:04:03.091Z,15.60
2023-03-04T04:06:30.569Z,18.02
2023-03-04T04:08:58.120Z,18.67
2023-03-04T04:11:25.813Z,16.70
2023-03-04T04:13:53.296Z,14.45
2023-03-04T04:16:20.862Z,16.08
2023-03-04T04:18:48.564Z,15.60
2023-03-04T04:21:16.130Z,17.70
2023-03-04T04:23:43.614Z,20.08
2023-03-04T04:26:11.164Z,14.18
2023-03-04T04:28:38.636Z,16.02
2023-03-04T04:31:09.853Z,16.80
2023-03-04T04:33:37.767Z,18.83
2023-03-04T04:36:06.226Z,17.23
2023-03-04T04:38:33.703Z,14.80
2023-03-04T04:41:01.237Z,14.38
2023-03-04T04:43:28.908Z,24.10
2023-03-04T04:45:59.069Z,16.17
2023-03-04T04:48:26.599Z,19.73
2023-03-04T04:50:56.502Z,19.17
2023-03-04T04:53:24.062Z,16.13
2023-03-04T04:55:51.778Z,16.45
2023-03-04T04:58:19.215Z,18.00
2023-03-04T05:00:46.747Z,18.23
2023-03-04T05:03:14.302Z,13.77
2023-03-04T05:05:42.554Z,16.17
2023-03-04T05:08:09.985Z,14.27
2023-03-04T05:10:38.055Z,20.63
2023-03-04T05:13:05.645Z,13.43
2023-03-04T05:15:33.113Z,14.40
2023-03-04T05:18:00.662Z,17.50
2023-03-04T05:20:28.371Z,11.25
2023-03-04T05:22:56.134Z,17.70
2023-03-04T05:25:23.544Z,15.63
2023-03-04T05:27:51.122Z,14.90
2023-03-04T05:30:18.613Z,15.60
2023-03-04T05:32:46.242Z,12.93
2023-03-04T05:35:13.954Z,13.75
2023-03-04T05:37:41.373Z,12.13
2023-03-04T05:40:10.085Z,13.55
2023-03-04T05:42:38.615Z,20.63
2023-03-04T05:45:07.064Z,16.15
2023-03-04T05:47:34.512Z,16.35
2023-03-04T05:50:02.177Z,15.65
2023-03-04T05:52:29.699Z,13.25
2023-03-04T05:54:57.164Z,13.77
2023-03-04T05:57:24.872Z,10.98
2023-03-04T05:59:52.429Z,15.18
2023-03-04T06:02:20.129Z,14.65
2023-03-04T06:04:47.865Z,14.02
2023-03-04T06:07:15.766Z,17.25
2023-03-04T06:09:45.187Z,17.10
2023-03-04T06:12:13.338Z,11.68
2023-03-04T06:14:40.861Z,14.30
2023-03-04T06:17:08.399Z,13.52
2023-03-04T06:19:38.018Z,12.57
2023-03-04T06:22:05.824Z,10.80
2023-03-04T06:24:33.296Z,12.55
2023-03-04T06:27:01.444Z,9.98
2023-03-04T06:29:29.223Z,14.10
2023-03-04T06:31:56.885Z,12.65
2023-03-04T06:34:24.546Z,16.48
2023-03-04T06:36:52.068Z,14.20
2023-03-04T06:39:19.861Z,9.68
2023-03-04T06:41:47.331Z,12.13
2023-03-04T06:44:14.775Z,15.77
2023-03-04T06:46:42.528Z,13.65
2023-03-04T06:49:10.491Z,11.45
2023-03-04T06:51:38.041Z,13.75
2023-03-04T06:54:05.823Z,10.95
2023-03-04T06:56:33.301Z,11.73
2023-03-04T06:59:00.845Z,12.40
2023-03-04T07:01:29.833Z,15.40
2023-03-04T07:03:57.938Z,13.63
2023-03-04T07:06:28.728Z,12.07
2023-03-04T07:08:57.305Z,12.90
2023-03-04T07:11:25.510Z,14.02
2023-03-04T07:13:53.456Z,13.00
2023-03-04T07:16:23.615Z,11.90
2023-03-04T07:18:51.258Z,10.55
2023-03-04T07:21:19.630Z,15.07
2023-03-04T07:23:47.583Z,9.50
2023-03-04T07:26:15.165Z,11.05
2023-03-04T07:28:43.455Z,14.65
2023-03-04T07:31:30.586Z,13.80
2023-03-04T07:34:01.899Z,10.10
2023-03-04T07:36:29.993Z,13.75
2023-03-04T07:38:57.917Z,11.02
2023-03-04T07:41:28.208Z,10.32
2023-03-04T07:43:59.295Z,11.30
2023-03-04T07:46:26.978Z,15.27
2023-03-04T07:48:56.376Z,10.90
2023-03-04T07:51:26.861Z,16.60
2023-03-04T07:53:58.775Z,8.00
2023-03-04T07:56:30.683Z,10.32
2023-03-04T07:58:59.871Z,11.55
2023-03-04T08:01:32.536Z,11.35
2023-03-04T08:04:00.947Z,14.88
2023-03-04T08:06:29.550Z,14.10
2023-03-04T08:09:00.671Z,12.43
2023-03-04T08:11:30.795Z,13.10
2023-03-04T08:13:59.053Z,15.50
2023-03-04T08:16:26.867Z,11.05
2023-03-04T08:19:00.592Z,10.80
2023-03-04T08:21:29.044Z,11.68
2023-03-04T08:24:02.341Z,13.52
2023-03-04T08:26:35.541Z,16.13
2023-03-04T08:29:05.617Z,9.40
2023-03-04T08:31:34.105Z,9.35
2023-03-04T08:34:04.164Z,7.63
2023-03-04T08:36:31.754Z,10.57
2023-03-04T08:38:59.241Z,11.75
2023-03-04T08:41:27.569Z,10.48
2023-03-04T08:43:55.312Z,12.70
2023-03-04T08:46:22.911Z,9.68
2023-03-04T08:48:50.488Z,10.82
2023-03-04T08:51:18.597Z,13.38
2023-03-04T08:53:46.809Z,9.68
2023-03-04T08:56:15.354Z,13.32
2023-03-04T08:58:43.007Z,9.85
2023-03-04T09:01:13.457Z,11.98
2023-03-04T09:03:42.599Z,11.30
2023-03-04T09:06:15.082Z,11.43
2023-03-04T09:08:44.039Z,7.20
2023-03-04T09:11:12.894Z,11.80
2023-03-04T09:13:40.739Z,12.13
2023-03-04T09:16:14.486Z,9.85
2023-03-04T09:18:43.146Z,11.70
2023-03-04T09:21:11.466Z,10.13
2023-03-04T09:23:39.690Z,13.52
2023-03-04T09:26:25.339Z,9.88
2023-03-04T09:28:58.696Z,9.48
2023-03-04T09:31:28.559Z,7.63
2023-03-04T09:33:59.086Z,9.43
2023-03-04T09:36:26.846Z,7.00
2023-03-04T09:38:54.565Z,7.85
2023-03-04T09:41:29.509Z,7.68
2023-03-04T09:43:58.164Z,6.82
2023-03-04T09:46:39.022Z,5.28
2023-03-04T09:49:07.492Z,9.40
2023-03-04T09:51:51.184Z,7.78
2023-03-04T09:54:50.566Z,7.20
2023-03-04T09:57:42.720Z,6.72
2023-03-04T10:00:20.098Z,8.85
2023-03-04T10:03:14.156Z,8.43
2023-03-04T10:06:01.158Z,6.72
2023-03-04T10:09:11.484Z,5.25
2023-03-04T10:11:49.067Z,5.82
2023-03-04T10:14:22.459Z,7.05
2023-03-04T10:17:13.275Z,8.02
2023-03-04T10:19:52.894Z,7.10
2023-03-04T10:22:45.992Z,6.20
2023-03-04T10:25:30.782Z,6.95
2023-03-04T10:28:13.312Z,9.65
2023-03-04T10:30:50.019Z,10.20
2023-03-04T10:33:31.044Z,6.85
2023-03-04T10:36:02.985Z,5.10
2023-03-04T10:38:41.793Z,5.43
2023-03-04T10:41:22.601Z,9.82
2023-03-04T10:44:18.281Z,6.07
2023-03-04T10:46:50.358Z,7.70
2023-03-04T10:49:19.697Z,7.93
2023-03-04T10:52:26.619Z,4.82
2023-03-04T10:54:57.450Z,8.40
2023-03-04T10:57:40.973Z,5.63
2023-03-04T11:00:17.841Z,4.80
2023-03-04T11:02:50.008Z,7.75
2023-03-04T11:05:18.943Z,7.63
2023-03-04T11:08:00.694Z,5.60
2023-03-04T11:10:37.177Z,6.05
2023-03-04T11:13:24.564Z,5.82
2023-03-04T11:15:55.205Z,4.75
2023-03-04T11:21:00.818Z,12.52
2023-03-04T11:23:39.790Z,5.63
2023-03-04T11:26:24.150Z,5.78
2023-03-04T11:29:00.828Z,7.38
2023-03-04T11:31:42.495Z,4.45
2023-03-04T11:34:42.274Z,6.07
2023-03-04T11:38:00.702Z,5.88
2023-03-04T11:40:56.977Z,6.32
2023-03-04T11:43:47.114Z,9.18
2023-03-04T11:46:33.429Z,4.93
2023-03-04T11:49:31.918Z,5.05
2023-03-04T11:52:21.465Z,5.15
2023-03-04T11:55:06.204Z,4.88
2023-03-04T11:57:51.847Z,3.22
2023-03-04T12:00:39.035Z,4.18
2023-03-04T12:03:44.307Z,4.03
2023-03-04T12:06:33.084Z,4.20
2023-03-04T12:09:24.550Z,4.25
2023-03-04T12:12:20.804Z,2.95
2023-03-04T12:15:10.925Z,5.38
2023-03-04T12:17:44.712Z,3.08
2023-03-04T12:20:44.844Z,2.88
2023-03-04T12:23:41.804Z,2.88
2023-03-04T12:26:39.528Z,3.70
2023-03-04T12:29:32.983Z,3.40
2023-03-04T12:33:07.101Z,4.05
2023-03-04T12:36:05.525Z,4.47
2023-03-04T12:38:57.120Z,5.53
2023-03-04T12:41:59.672Z,3.17
2023-03-04T12:44:48.021Z,3.80
2023-03-04T12:47:38.932Z,10.95
2023-03-04T12:50:38.159Z,5.70
2023-03-04T12:53:22.830Z,5.80
2023-03-04T12:55:52.288Z,4.75
2023-03-04T12:58:28.610Z,8.60
2023-03-04T13:01:27.488Z,3.55
2023-03-04T13:04:23.288Z,4.38
2023-03-04T13:07:09.664Z,3.58
2023-03-04T13:09:55.096Z,2.28
2023-03-04T13:12:23.969Z,5.20
2023-03-04T13:15:26.223Z,4.28
2023-03-04T13:17:58.156Z,3.72
2023-03-04T13:20:31.641Z,4.18
2023-03-04T13:23:01.440Z,4.95
2023-03-04T13:25:32.114Z,5.72
2023-03-04T13:28:05.301Z,1.75
2023-03-04T13:30:34.474Z,2.75
2023-03-04T13:33:09.338Z,2.92
2023-03-04T13:35:48.932Z,2.90
2023-03-04T13:38:47.692Z,1.45
2023-03-04T13:41:50.915Z,1.33
2023-03-04T13:44:57.906Z,2.38
2023-03-04T13:47:45.411Z,4.40
2023-03-04T13:50:28.164Z,5.40
2023-03-04T13:53:30.764Z,5.50
2023-03-04T13:56:22.033Z,2.58
2023-03-04T13:59:01.520Z,4.23
2023-03-04T14:01:32.654Z,5.68
2023-03-04T14:04:10.632Z,10.95
2023-03-04T14:06:44.170Z,5.20
2023-03-04T14:09:22.194Z,11.55
2023-03-04T14:11:54.116Z,9.10
2023-03-04T14:14:30.853Z,8.32
2023-03-04T14:17:06.554Z,13.27
2023-03-04T14:19:44.075Z,6.95
2023-03-04T14:22:31.038Z,8.48
2023-03-04T14:25:19.186Z,6.72
2023-03-04T14:27:47.897Z,8.50
2023-03-04T14:30:40.939Z,9.75
2023-03-04T14:33:18.915Z,10.52
2023-03-04T14:35:49.786Z,8.45
2023-03-04T14:38:32.012Z,9.70
2023-03-04T14:41:11.375Z,7.70
2023-03-04T14:44:14.796Z,7.60
2023-03-04T14:47:06.555Z,11.73
2023-03-04T14:49:37.185Z,7.47
2023-03-04T14:52:25.808Z,7.90
2023-03-04T14:55:28.848Z,9.30
2023-03-04T14:58:21.564Z,7.47
2023-03-04T15:01:15.587Z,10.65
2023-03-04T15:04:08.262Z,8.27
2023-03-04T15:06:48.371Z,7.88
2023-03-04T15:09:27.078Z,12.00
2023-03-04T15:12:06.162Z,9.77
2023-03-04T15:14:54.977Z,8.70
2023-03-04T15:17:38.817Z,7.00
2023-03-04T15:20:06.183Z,7.22
2023-03-04T15:22:53.047Z,6.38
2023-03-04T15:25:21.198Z,8.60
2023-03-04T15:27:50.751Z,5.78
2023-03-04T15:30:27.527Z,5.28
2023-03-04T15:32:58.799Z,5.05
2023-03-04T15:35:33.230Z,6.65
2023-03-04T15:38:01.493Z,8.20
2023-03-04T15:40:41.884Z,4.47
2023-03-04T15:43:18.576Z,6.85
2023-03-04T15:45:49.761Z,8.65
2023-03-04T15:48:19.938Z,5.28
2023-03-04T15:50:58.481Z,10.02
2023-03-04T15:53:33.696Z,10.15
2023-03-04T15:56:03.727Z,8.95
2023-03-04T15:58:34.985Z,8.10
2023-03-04T16:01:03.772Z,8.95
2023-03-04T16:03:31.670Z,17.60
2023-03-04T16:05:59.331Z,10.57
2023-03-04T16:08:26.842Z,9.82
2023-03-04T16:10:54.837Z,6.55
2023-03-04T16:13:24.214Z,9.43
2023-03-04T16:15:53.338Z,7.18
2023-03-04T16:18:21.555Z,6.40
2023-03-04T16:20:51.429Z,5.20
2023-03-04T16:23:24.556Z,7.03
2023-03-04T16:25:56.950Z,8.75
2023-03-04T16:28:24.531Z,5.28
2023-03-04T16:30:52.205Z,6.07
2023-03-04T16:33:19.893Z,5.53
2023-03-04T16:35:47.757Z,5.63
2023-03-04T16:38:28.172Z,5.82
2023-03-04T16:40:57.897Z,6.43
2023-03-04T16:43:25.993Z,6.00
2023-03-04T16:45:53.599Z,7.68
2023-03-04T16:48:21.431Z,7.35
2023-03-04T16:50:49.171Z,5.72
2023-03-04T16:53:38.381Z,9.80
2023-03-04T16:56:12.741Z,9.10
2023-03-04T16:58:41.411Z,11.13
2023-03-04T17:01:21.655Z,9.10
2023-03-04T17:03:49.244Z,7.57
2023-03-04T17:06:17.076Z,9.23
2023-03-04T17:08:44.999Z,10.25
2023-03-04T17:11:22.745Z,10.40
2023-03-04T17:13:51.463Z,9.50
2023-03-04T17:16:19.235Z,5.82
2023-03-04T17:18:46.940Z,7.82
2023-03-04T17:21:23.727Z,8.65
2023-03-04T17:23:53.049Z,10.52
2023-03-04T17:26:22.572Z,7.93
2023-03-04T17:28:51.552Z,7.00
2023-03-04T17:31:21.000Z,4.63
2023-03-04T17:33:49.606Z,6.82
2023-03-04T17:36:19.536Z,6.00
2023-03-04T17:38:49.584Z,5.40
2023-03-04T17:41:18.736Z,4.75
2023-03-04T17:43:50.207Z,6.65
2023-03-04T17:46:24.402Z,6.75
2023-03-04T17:48:56.126Z,6.10
2023-03-04T17:54:05.730Z,4.85
2023-03-04T17:56:35.328Z,5.07
2023-03-04T17:59:08.747Z,5.93
2023-03-04T18:01:36.264Z,4.43
2023-03-04T18:04:04.259Z,5.10
2023-03-04T18:06:31.986Z,6.60
2023-03-04T18:08:59.628Z,5.25
2023-03-04T18:11:27.975Z,8.30
2023-03-04T18:13:56.695Z,7.13
2023-03-04T18:16:26.965Z,5.63
2023-03-04T18:18:57.903Z,6.88
2023-03-04T18:21:29.169Z,8.02
2023-03-04T18:23:57.914Z,9.63
2023-03-04T18:26:27.639Z,6.72
2023-03-04T18:28:56.677Z,9.60
2023-03-04T18:31:31.597Z,7.55
2023-03-04T18:34:04.053Z,9.52
2023-03-04T18:36:33.565Z,7.80
2023-03-04T18:39:04.355Z,10.63
2023-03-04T18:41:32.206Z,9.13
2023-03-04T18:43:59.774Z,9.38
2023-03-04T18:46:40.243Z,11.00
2023-03-04T18:49:10.059Z,9.02
2023-03-04T18:51:38.765Z,8.32
2023-03-04T18:54:06.569Z,7.68
2023-03-04T18:56:52.820Z,10.30
2023-03-04T18:59:31.463Z,8.93
2023-03-04T19:02:06.787Z,12.85
2023-03-04T19:04:34.341Z,13.25
2023-03-04T19:07:01.827Z,15.05
2023-03-04T19:09:29.497Z,10.77
2023-03-04T19:11:57.232Z,13.73
2023-03-04T19:14:24.891Z,13.57
2023-03-04T19:16:52.403Z,16.77
2023-03-04T19:19:23.048Z,12.48
2023-03-04T19:21:50.636Z,15.63
2023-03-04T19:24:18.101Z,17.13
2023-03-04T19:26:45.890Z,13.80
2023-03-04T19:29:13.599Z,11.73
2023-03-04T19:31:41.767Z,14.20
2023-03-04T19:34:09.968Z,13.23
2023-03-04T19:36:38.293Z,11.25
2023-03-04T19:39:07.911Z,14.00
2023-03-04T19:41:36.090Z,13.07
2023-03-04T19:44:03.629Z,16.42
2023-03-04T19:46:32.241Z,14.63
2023-03-04T19:49:03.169Z,12.07
2023-03-04T19:51:32.736Z,10.60
2023-03-04T19:54:00.449Z,12.50
2023-03-04T19:56:28.692Z,15.45
2023-03-04T19:58:57.080Z,13.52
2023-03-04T20:01:34.554Z,15.50
2023-03-04T20:04:15.424Z,16.73
2023-03-04T20:06:46.308Z,12.87
2023-03-04T20:09:17.380Z,11.67
2023-03-04T20:11:57.763Z,14.80
2023-03-04T20:14:27.809Z,13.05
2023-03-04T20:17:03.063Z,14.52
2023-03-04T20:19:33.897Z,17.48
2023-03-04T20:22:02.762Z,13.43
2023-03-04T20:24:30.434Z,14.52
2023-03-04T20:26:58.298Z,14.18
2023-03-04T20:29:27.437Z,15.07
2023-03-04T20:31:55.531Z,16.77
2023-03-04T20:34:23.876Z,14.63
2023-03-04T20:36:51.416Z,12.75
2023-03-04T20:39:28.831Z,17.65
2023-03-04T20:41:58.878Z,15.35
2023-03-04T20:44:27.452Z,15.38
2023-03-04T20:46:55.016Z,15.75
2023-03-04T20:49:28.133Z,17.70
2023-03-04T20:52:06.278Z,15.60
2023-03-04T20:54:37.432Z,12.10
2023-03-04T20:57:07.923Z,16.25
2023-03-04T20:59:36.333Z,14.70
2023-03-04T21:02:06.138Z,14.38
2023-03-04T21:04:34.438Z,15.55
2023-03-04T21:07:02.319Z,13.07
2023-03-04T21:09:30.232Z,18.70
2023-03-04T21:11:59.785Z,16.88
2023-03-04T21:14:31.181Z,14.05
2023-03-04T21:17:03.805Z,15.25
2023-03-04T21:19:36.378Z,13.13
2023-03-04T21:22:04.667Z,15.25
2023-03-04T21:24:35.886Z,17.75
2023-03-04T21:27:04.612Z,18.35
2023-03-04T21:29:32.660Z,12.27
2023-03-04T21:32:23.272Z,15.88
2023-03-04T21:34:54.800Z,16.10
2023-03-04T21:37:25.102Z,17.58
2023-03-04T21:39:54.388Z,15.65
2023-03-04T21:42:22.288Z,16.60
2023-03-04T21:44:51.624Z,17.30
2023-03-04T21:47:21.714Z,16.02
2023-03-04T21:49:49.682Z,14.82
2023-03-04T21:52:21.100Z,13.07
2023-03-04T21:54:49.532Z,15.57
2023-03-04T21:57:17.934Z,15.55
2023-03-04T21:59:45.553Z,15.82
2023-03-04T22:02:20.625Z,12.25
2023-03-04T22:04:48.843Z,14.35
2023-03-04T22:07:17.351Z,13.57
2023-03-04T22:09:44.985Z,15.10
2023-03-04T22:12:14.396Z,14.88
2023-03-04T22:14:42.169Z,17.13
2023-03-04T22:17:09.784Z,12.20
2023-03-04T22:19:37.365Z,14.48
2023-03-04T22:22:05.166Z,12.95
2023-03-04T22:24:32.595Z,16.67
2023-03-04T22:27:00.309Z,15.55
2023-03-04T22:29:28.163Z,17.70
2023-03-04T22:31:55.861Z,16.27
2023-03-04T22:34:23.420Z,14.48
2023-03-04T22:36:51.045Z,14.63
2023-03-04T22:39:23.104Z,13.85
2023-03-04T22:41:50.904Z,17.42
2023-03-04T22:44:19.002Z,16.52
2023-03-04T22:46:46.645Z,13.52
2023-03-04T22:49:14.932Z,16.30
2023-03-04T22:51:45.209Z,13.65
2023-03-04T22:54:17.511Z,13.73
2023-03-04T22:56:45.233Z,14.57
2023-03-04T22:59:13.763Z,12.77
2023-03-04T23:01:41.793Z,12.40
2023-03-04T23:04:09.382Z,13.90
2023-03-04T23:06:37.685Z,11.90
2023-03-04T23:09:06.230Z,12.02
2023-03-04T23:11:35.627Z,13.77
2023-03-04T23:14:07.296Z,13.05
2023-03-04T23:19:08.287Z,12.32
2023-03-04T23:21:37.836Z,12.15
2023-03-04T23:24:07.922Z,10.98
2023-03-04T23:26:41.385Z,11.57
2023-03-04T23:29:13.760Z,14.93
2023-03-04T23:31:42.689Z,10.60
2023-03-04T23:34:11.308Z,10.35
2023-03-04T23:36:39.270Z,14.13
2023-03-04T23:39:07.581Z,11.93
2023-03-04T23:41:36.284Z,11.45
2023-03-04T23:44:04.705Z,14.75
2023-03-04T23:46:32.817Z,11.93
2023-03-04T23:49:00.573Z,12.77
2023-03-04T23:51:29.987Z,13.32
2023-03-04T23:53:58.197Z,15.60
2023-03-04T23:56:29.884Z,11.63
